createdAt,value
2018-10-01T00:00:55.821Z,20.73
2018-10-01T00:03:23.168Z,19.50
2018-10-01T00:05:50.147Z,18.80
2018-10-01T00:08:17.145Z,17.70
2018-10-01T00:10:44.193Z,19.03
2018-10-01T00:13:11.246Z,17.70
2018-10-01T00:15:38.313Z,17.20
2018-10-01T00:18:05.662Z,17.23
2018-10-01T00:20:38.444Z,18.77
2018-10-01T00:23:05.486Z,20.13
2018-10-01T00:25:32.518Z,16.00
2018-10-01T00:27:59.528Z,17.47
2018-10-01T00:30:26.845Z,17.90
2018-10-01T00:32:53.942Z,14.13
2018-10-01T00:35:21.022Z,20.30
2018-10-01T00:37:48.077Z,16.27
2018-10-01T00:40:15.199Z,16.30
2018-10-01T00:42:42.117Z,15.97
2018-10-01T00:45:09.763Z,13.20
2018-10-01T00:47:36.790Z,15.77
2018-10-01T00:50:04.132Z,16.57
2018-10-01T00:52:31.387Z,16.70
2018-10-01T00:54:58.446Z,15.40
2018-10-01T00:57:25.478Z,16.10
2018-10-01T00:59:52.750Z,15.50
2018-10-01T01:02:19.693Z,14.90
2018-10-01T01:04:46.662Z,13.53
2018-10-01T01:07:13.992Z,12.70
2018-10-01T01:09:40.960Z,13.00
2018-10-01T01:12:08.037Z,11.97
2018-10-01T01:14:35.039Z,13.90
2018-10-01T01:17:01.993Z,15.10
2018-10-01T01:19:28.931Z,14.50
2018-10-01T01:21:55.917Z,14.90
2018-10-01T01:24:22.870Z,14.20
2018-10-01T01:26:49.894Z,14.07
2018-10-01T01:29:17.218Z,13.00
2018-10-01T01:31:44.176Z,12.70
2018-10-01T01:34:11.157Z,12.90
2018-10-01T01:36:38.166Z,13.00
2018-10-01T01:39:07.164Z,13.30
2018-10-01T01:41:34.181Z,12.70
2018-10-01T01:44:01.188Z,12.13
2018-10-01T01:46:28.152Z,13.23
2018-10-01T01:48:55.144Z,13.27
2018-10-01T01:51:22.133Z,12.70
2018-10-01T01:53:49.079Z,12.43
2018-10-01T01:56:16.065Z,12.17
2018-10-01T01:58:43.072Z,12.67
2018-10-01T02:01:10.171Z,12.30
2018-10-01T02:03:37.128Z,13.30
2018-10-01T02:06:04.385Z,12.60
2018-10-01T02:08:31.398Z,11.63
2018-10-01T02:10:58.375Z,11.33
2018-10-01T02:13:25.385Z,12.13
2018-10-01T02:15:52.413Z,11.47
2018-10-01T02:18:19.459Z,11.67
2018-10-01T02:20:46.519Z,11.40
2018-10-01T02:23:13.557Z,11.70
2018-10-01T02:25:40.566Z,10.43
2018-10-01T02:28:07.603Z,10.50
2018-10-01T02:30:34.581Z,10.33
2018-10-01T02:33:01.587Z,11.40
2018-10-01T02:35:28.600Z,10.90
2018-10-01T02:37:55.544Z,10.90
2018-10-01T02:40:22.531Z,10.80
2018-10-01T02:42:49.565Z,10.50
2018-10-01T02:45:16.574Z,10.70
2018-10-01T02:47:43.722Z,11.10
2018-10-01T02:50:10.768Z,11.87
2018-10-01T02:52:43.502Z,10.90
2018-10-01T02:55:10.461Z,10.43
2018-10-01T02:57:37.425Z,10.90
2018-10-01T03:00:05.390Z,11.60
2018-10-01T03:02:32.442Z,10.93
2018-10-01T03:04:59.386Z,10.50
2018-10-01T03:07:26.397Z,10.53
2018-10-01T03:09:53.410Z,10.70
2018-10-01T03:12:20.463Z,10.50
2018-10-01T03:14:47.408Z,9.17
2018-10-01T03:17:14.593Z,9.90
2018-10-01T03:19:41.578Z,9.90
2018-10-01T03:22:08.548Z,10.40
2018-10-01T03:24:35.553Z,9.03
2018-10-01T03:27:02.568Z,9.60
2018-10-01T03:29:29.593Z,9.20
2018-10-01T03:31:56.653Z,9.53
2018-10-01T03:34:23.755Z,10.37
2018-10-01T03:36:50.785Z,9.70
2018-10-01T03:39:17.854Z,9.57
2018-10-01T03:41:44.926Z,9.17
2018-10-01T03:44:12.013Z,8.53
2018-10-01T03:46:39.303Z,9.03
2018-10-01T03:49:06.240Z,8.93
2018-10-01T03:51:33.216Z,8.27
2018-10-01T03:54:00.521Z,9.07
2018-10-01T03:56:27.601Z,8.43
2018-10-01T03:58:54.581Z,8.60
2018-10-01T04:01:21.836Z,8.50
2018-10-01T04:03:48.860Z,8.27
2018-10-01T04:06:15.890Z,8.50
2018-10-01T04:08:42.902Z,8.20
2018-10-01T04:11:10.007Z,7.83
2018-10-01T04:13:37.118Z,7.60
2018-10-01T04:16:04.394Z,7.07
2018-10-01T04:18:31.370Z,7.67
2018-10-01T04:20:58.382Z,7.33
2018-10-01T04:23:25.414Z,8.30
2018-10-01T04:25:52.383Z,6.70
2018-10-01T04:28:19.398Z,7.60
2018-10-01T04:30:46.641Z,6.87
2018-10-01T04:33:13.791Z,7.47
2018-10-01T04:35:40.757Z,6.80
2018-10-01T04:38:07.804Z,7.10
2018-10-01T04:40:34.813Z,7.60
2018-10-01T04:43:01.774Z,7.77
2018-10-01T04:45:28.891Z,7.40
2018-10-01T04:47:55.855Z,7.40
2018-10-01T04:50:22.842Z,8.00
2018-10-01T04:52:49.804Z,7.67
2018-10-01T04:55:16.773Z,7.10
2018-10-01T04:57:44.731Z,6.70
2018-10-01T05:00:11.883Z,6.37
2018-10-01T05:02:38.849Z,6.53
2018-10-01T05:05:05.806Z,6.27
2018-10-01T05:07:32.889Z,7.23
2018-10-01T05:09:59.906Z,7.33
2018-10-01T05:12:26.919Z,6.13
2018-10-01T05:14:53.994Z,7.63
2018-10-01T05:17:20.972Z,5.97
2018-10-01T05:19:47.924Z,6.70
2018-10-01T05:22:15.021Z,6.53
2018-10-01T05:24:42.060Z,6.77
2018-10-01T05:27:09.459Z,6.97
2018-10-01T05:29:36.383Z,6.93
2018-10-01T05:32:03.492Z,6.90
2018-10-01T05:34:30.482Z,6.57
2018-10-01T05:36:57.837Z,6.50
2018-10-01T05:39:24.785Z,6.63
2018-10-01T05:41:51.806Z,6.97
2018-10-01T05:44:19.042Z,6.60
2018-10-01T05:46:46.088Z,7.20
2018-10-01T05:49:13.104Z,6.40
2018-10-01T05:51:40.355Z,6.90
2018-10-01T05:54:07.427Z,6.87
2018-10-01T05:56:34.401Z,6.60
2018-10-01T05:59:01.369Z,6.37
2018-10-01T06:01:28.406Z,7.07
2018-10-01T06:03:55.391Z,6.80
2018-10-01T06:06:22.737Z,7.03
2018-10-01T06:08:49.757Z,6.50
2018-10-01T06:11:16.725Z,7.03
2018-10-01T06:13:43.758Z,7.27
2018-10-01T06:16:10.749Z,6.87
2018-10-01T06:18:38.099Z,7.13
2018-10-01T06:21:05.090Z,7.03
2018-10-01T06:23:32.092Z,6.77
2018-10-01T06:25:59.126Z,6.30
2018-10-01T06:28:26.185Z,7.27
2018-10-01T06:30:53.449Z,7.03
2018-10-01T06:33:20.680Z,7.43
2018-10-01T06:35:48.063Z,6.27
2018-10-01T06:38:15.062Z,6.93
2018-10-01T06:40:42.089Z,7.80
2018-10-01T06:43:09.311Z,7.47
2018-10-01T06:45:36.284Z,8.00
2018-10-01T06:48:03.290Z,7.70
2018-10-01T06:50:30.274Z,9.10
2018-10-01T06:52:57.286Z,7.40
2018-10-01T06:55:24.313Z,8.00
2018-10-01T06:57:51.350Z,7.40
2018-10-01T07:00:18.383Z,7.70
2018-10-01T07:02:45.369Z,7.60
2018-10-01T07:05:12.597Z,8.37
2018-10-01T07:07:39.568Z,8.70
2018-10-01T07:10:06.620Z,7.63
2018-10-01T07:12:34.085Z,7.80
2018-10-01T07:15:01.175Z,8.17
2018-10-01T07:17:28.467Z,8.20
2018-10-01T07:19:55.385Z,7.67
2018-10-01T07:22:22.498Z,7.53
2018-10-01T07:24:49.444Z,7.60
2018-10-01T07:27:16.748Z,7.70
2018-10-01T07:29:43.821Z,7.93
2018-10-01T07:32:10.946Z,7.00
2018-10-01T07:34:38.435Z,7.17
2018-10-01T07:37:05.527Z,7.30
2018-10-01T07:39:32.501Z,7.30
2018-10-01T07:41:59.857Z,7.93
2018-10-01T07:44:26.900Z,7.73
2018-10-01T07:46:54.018Z,8.83
2018-10-01T07:49:21.489Z,7.77
2018-10-01T07:51:48.437Z,7.20
2018-10-01T07:54:15.489Z,8.77
2018-10-01T07:56:42.453Z,10.23
2018-10-01T07:59:09.383Z,10.50
2018-10-01T08:01:36.349Z,12.43
2018-10-01T08:04:03.725Z,10.00
2018-10-01T08:06:30.685Z,9.37
2018-10-01T08:08:57.754Z,8.77
2018-10-01T08:11:25.089Z,11.97
2018-10-01T08:13:52.023Z,19.40
2018-10-01T08:16:18.986Z,11.47
2018-10-01T08:18:45.967Z,9.40
2018-10-01T08:21:12.947Z,20.63
2018-10-01T08:23:39.986Z,37.97
2018-10-01T08:26:07.267Z,31.87
2018-10-01T08:28:34.161Z,14.60
2018-10-01T08:31:01.102Z,8.50
2018-10-01T08:33:28.169Z,12.83
2018-10-01T08:35:55.105Z,9.70
2018-10-01T08:38:22.170Z,10.20
2018-10-01T08:40:49.560Z,9.10
2018-10-01T08:43:16.616Z,9.20
2018-10-01T08:45:43.603Z,9.67
2018-10-01T08:48:12.038Z,9.03
2018-10-01T08:50:45.250Z,9.10
2018-10-01T08:53:19.205Z,9.20
2018-10-01T08:55:46.171Z,8.80
2018-10-01T08:58:13.149Z,9.57
2018-10-01T09:00:40.163Z,9.40
2018-10-01T09:03:07.253Z,8.90
2018-10-01T09:05:34.273Z,10.40
2018-10-01T09:08:01.533Z,10.70
2018-10-01T09:10:28.496Z,9.63
2018-10-01T09:12:55.501Z,9.60
2018-10-01T09:15:22.859Z,10.10
2018-10-01T09:17:49.893Z,10.50
2018-10-01T09:20:16.901Z,10.47
2018-10-01T09:22:43.868Z,10.53
2018-10-01T09:25:10.916Z,11.57
2018-10-01T09:27:37.879Z,11.93
2018-10-01T09:30:05.451Z,12.27
2018-10-01T09:32:32.467Z,11.47
2018-10-01T09:34:59.463Z,12.30
2018-10-01T09:37:26.802Z,11.80
2018-10-01T09:39:53.792Z,12.00
2018-10-01T09:42:20.856Z,10.63
2018-10-01T09:44:48.165Z,12.77
2018-10-01T09:47:15.169Z,11.83
2018-10-01T09:49:42.175Z,10.80
2018-10-01T09:52:09.276Z,12.03
2018-10-01T09:54:36.188Z,11.87
2018-10-01T09:57:03.164Z,13.40
2018-10-01T09:59:30.169Z,12.50
2018-10-01T10:01:57.218Z,12.60
2018-10-01T10:06:52.548Z,13.40
2018-10-01T10:09:19.604Z,12.63
2018-10-01T10:11:46.644Z,11.17
2018-10-01T10:14:13.874Z,11.73
2018-10-01T10:16:40.932Z,10.30
2018-10-01T10:19:07.900Z,12.00
2018-10-01T10:21:34.972Z,11.13
2018-10-01T10:24:02.100Z,12.80
2018-10-01T10:26:29.181Z,12.50
2018-10-01T10:28:56.514Z,11.47
2018-10-01T10:31:23.552Z,10.97
2018-10-01T10:33:50.592Z,12.00
2018-10-01T10:36:18.067Z,10.33
2018-10-01T10:38:45.107Z,10.23
2018-10-01T10:41:12.212Z,11.77
2018-10-01T10:43:39.291Z,13.33
2018-10-01T10:46:06.939Z,11.37
2018-10-01T10:48:33.980Z,11.47
2018-10-01T10:51:01.072Z,10.53
2018-10-01T10:53:28.104Z,11.50
2018-10-01T10:55:55.244Z,11.07
2018-10-01T10:58:22.633Z,11.30
2018-10-01T11:00:49.748Z,10.73
2018-10-01T11:03:16.837Z,10.57
2018-10-01T11:05:44.082Z,10.20
2018-10-01T11:08:11.081Z,11.80
2018-10-01T11:10:38.032Z,11.60
2018-10-01T11:13:05.033Z,9.57
2018-10-01T11:15:31.971Z,9.80
2018-10-01T11:17:59.009Z,9.40
2018-10-01T11:20:26.517Z,9.80
2018-10-01T11:22:53.434Z,9.37
2018-10-01T11:25:20.545Z,9.23
2018-10-01T11:27:47.998Z,9.17
2018-10-01T11:30:14.987Z,9.90
2018-10-01T11:32:41.947Z,10.13
2018-10-01T11:35:08.995Z,10.87
2018-10-01T11:37:35.949Z,12.03
2018-10-01T11:40:02.902Z,12.90
2018-10-01T11:42:30.208Z,11.60
2018-10-01T11:44:57.176Z,12.47
2018-10-01T11:47:24.159Z,10.90
2018-10-01T11:49:51.452Z,10.77
2018-10-01T11:52:18.393Z,11.23
2018-10-01T11:54:45.440Z,13.10
2018-10-01T11:57:12.515Z,12.70
2018-10-01T11:59:39.412Z,13.43
2018-10-01T12:02:06.462Z,12.60
2018-10-01T12:04:33.478Z,13.03
2018-10-01T12:07:00.393Z,12.60
2018-10-01T12:09:27.395Z,10.97
2018-10-01T12:11:54.356Z,9.90
2018-10-01T12:14:21.420Z,9.63
2018-10-01T12:16:48.380Z,8.50
2018-10-01T12:19:15.339Z,8.60
2018-10-01T12:21:42.405Z,6.60
2018-10-01T12:24:09.536Z,10.63
2018-10-01T12:26:36.561Z,6.00
2018-10-01T12:29:03.546Z,6.03
2018-10-01T12:31:30.465Z,5.10
2018-10-01T12:33:57.441Z,3.90
2018-10-01T12:36:24.380Z,3.77
2018-10-01T12:38:51.601Z,5.40
2018-10-01T12:41:18.833Z,4.90
2018-10-01T12:43:45.836Z,3.30
2018-10-01T12:46:12.799Z,4.13
2018-10-01T12:48:40.197Z,3.67
2018-10-01T12:51:07.130Z,3.90
2018-10-01T12:53:34.196Z,4.07
2018-10-01T12:56:01.221Z,5.03
2018-10-01T12:58:28.173Z,5.10
2018-10-01T13:00:55.150Z,5.63
2018-10-01T13:03:22.425Z,3.50
2018-10-01T13:05:49.697Z,3.20
2018-10-01T13:08:16.693Z,3.80
2018-10-01T13:10:44.061Z,3.70
2018-10-01T13:13:11.039Z,3.90
2018-10-01T13:15:37.985Z,3.50
2018-10-01T13:18:05.017Z,3.70
2018-10-01T13:20:32.076Z,3.60
2018-10-01T13:22:59.206Z,4.07
2018-10-01T13:25:26.596Z,2.83
2018-10-01T13:27:53.684Z,3.20
2018-10-01T13:30:20.748Z,3.10
2018-10-01T13:32:47.703Z,5.77
2018-10-01T13:35:14.657Z,2.90
2018-10-01T13:37:41.704Z,3.20
2018-10-01T13:40:08.752Z,3.50
2018-10-01T13:42:35.869Z,3.20
2018-10-01T13:45:02.919Z,3.93
2018-10-01T13:47:30.012Z,10.30
2018-10-01T13:49:57.042Z,5.03
2018-10-01T13:52:24.015Z,4.00
2018-10-01T13:54:51.297Z,3.00
2018-10-01T13:57:18.267Z,3.67
2018-10-01T13:59:45.442Z,3.47
2018-10-01T14:02:12.447Z,3.60
2018-10-01T14:04:39.498Z,4.03
2018-10-01T14:07:06.452Z,3.37
2018-10-01T14:09:33.689Z,3.17
2018-10-01T14:12:00.673Z,3.30
2018-10-01T14:14:27.659Z,2.70
2018-10-01T14:16:54.902Z,2.60
2018-10-01T14:19:21.918Z,3.00
2018-10-01T14:21:48.873Z,2.63
2018-10-01T14:24:16.181Z,2.70
2018-10-01T14:26:43.121Z,2.77
2018-10-01T14:29:10.080Z,2.60
2018-10-01T14:31:37.323Z,2.63
2018-10-01T14:34:04.377Z,2.80
2018-10-01T14:36:31.461Z,2.03
2018-10-01T14:38:58.436Z,2.37
2018-10-01T14:41:25.389Z,2.90
2018-10-01T14:43:52.335Z,4.40
2018-10-01T14:46:19.605Z,4.60
2018-10-01T14:48:46.584Z,4.10
2018-10-01T14:51:13.506Z,4.53
2018-10-01T14:53:40.881Z,3.57
2018-10-01T14:56:07.912Z,3.40
2018-10-01T14:58:34.913Z,2.30
2018-10-01T15:01:01.939Z,2.70
2018-10-01T15:03:28.936Z,2.90
2018-10-01T15:05:55.912Z,2.63
2018-10-01T15:08:23.245Z,2.40
2018-10-01T15:10:50.330Z,2.00
2018-10-01T15:13:17.200Z,2.27
2018-10-01T15:15:44.917Z,2.60
2018-10-01T15:18:11.956Z,3.07
2018-10-01T15:20:38.828Z,3.63
2018-10-01T15:23:06.084Z,3.90
2018-10-01T15:25:33.058Z,4.30
2018-10-01T15:27:59.985Z,3.40
2018-10-01T15:30:27.013Z,3.93
2018-10-01T15:32:53.978Z,5.80
2018-10-01T15:35:20.940Z,4.13
2018-10-01T15:37:47.904Z,4.90
2018-10-01T15:40:14.849Z,4.80
2018-10-01T15:42:41.864Z,4.40
2018-10-01T15:45:09.393Z,4.80
2018-10-01T15:47:36.323Z,4.40
2018-10-01T15:50:03.432Z,5.33
2018-10-01T15:52:30.261Z,8.13
2018-10-01T15:54:57.236Z,7.60
2018-10-01T15:57:24.157Z,5.60
2018-10-01T15:59:51.216Z,6.00
2018-10-01T16:02:18.136Z,15.00
2018-10-01T16:04:45.073Z,11.60
2018-10-01T16:07:12.407Z,5.67
2018-10-01T16:09:39.328Z,5.87
2018-10-01T16:12:06.279Z,5.20
2018-10-01T16:14:33.219Z,5.70
2018-10-01T16:17:00.229Z,4.40
2018-10-01T16:19:27.163Z,6.80
2018-10-01T16:21:54.471Z,6.00
2018-10-01T16:24:21.420Z,6.30
2018-10-01T16:26:48.491Z,6.43
2018-10-01T16:29:16.148Z,8.00
2018-10-01T16:31:43.315Z,12.07
2018-10-01T16:34:10.423Z,6.60
2018-10-01T16:36:37.625Z,7.60
2018-10-01T16:39:07.604Z,5.50
2018-10-01T16:41:34.629Z,5.37
2018-10-01T16:44:01.914Z,5.37
2018-10-01T16:46:28.888Z,10.00
2018-10-01T16:48:55.841Z,11.83
2018-10-01T16:51:23.286Z,5.90
2018-10-01T16:53:50.377Z,5.30
2018-10-01T16:56:17.469Z,5.10
2018-10-01T16:58:44.901Z,7.27
2018-10-01T17:01:12.005Z,7.40
2018-10-01T17:03:39.204Z,6.73
2018-10-01T17:06:06.500Z,6.70
2018-10-01T17:08:33.820Z,5.87
2018-10-01T17:11:00.848Z,9.47
2018-10-01T17:13:29.384Z,8.60
2018-10-01T17:15:58.143Z,8.67
2018-10-01T17:18:25.608Z,7.70
2018-10-01T17:20:52.886Z,7.47
2018-10-01T17:23:19.836Z,6.00
2018-10-01T17:25:46.833Z,7.57
2018-10-01T17:28:14.313Z,8.70
2018-10-01T17:30:41.224Z,5.57
2018-10-01T17:33:08.250Z,11.83
2018-10-01T17:35:35.564Z,6.30
2018-10-01T17:38:02.573Z,7.77
2018-10-01T17:40:29.591Z,7.33
2018-10-01T17:42:56.872Z,9.10
2018-10-01T17:45:23.929Z,12.57
2018-10-01T17:47:50.940Z,20.67
2018-10-01T17:50:18.594Z,14.27
2018-10-01T17:52:45.545Z,15.83
2018-10-01T17:55:12.604Z,9.00
2018-10-01T17:57:39.989Z,11.77
2018-10-01T18:00:07.152Z,20.50
2018-10-01T18:02:34.133Z,26.80
2018-10-01T18:05:01.395Z,22.77
2018-10-01T18:07:28.493Z,12.17
2018-10-01T18:09:55.521Z,11.10
2018-10-01T18:12:22.818Z,11.83
2018-10-01T18:14:49.896Z,4.57
2018-10-01T18:17:17.056Z,31.60
2018-10-01T18:19:44.140Z,10.47
2018-10-01T18:22:11.164Z,17.57
2018-10-01T18:24:38.306Z,5.17
2018-10-01T18:27:05.660Z,12.73
2018-10-01T18:29:32.714Z,7.67
2018-10-01T18:31:59.789Z,9.13
2018-10-01T18:34:26.950Z,10.17
2018-10-01T18:36:53.960Z,15.53
2018-10-01T18:39:23.806Z,10.67
2018-10-01T18:41:51.205Z,10.40
2018-10-01T18:44:18.207Z,10.17
2018-10-01T18:46:46.207Z,10.73
2018-10-01T18:49:13.268Z,5.17
2018-10-01T18:51:40.362Z,5.30
2018-10-01T18:54:07.456Z,5.30
2018-10-01T18:56:34.967Z,8.73
2018-10-01T18:59:02.140Z,5.60
2018-10-01T19:01:29.177Z,5.10
2018-10-01T19:03:56.460Z,6.93
2018-10-01T19:06:23.432Z,9.60
2018-10-01T19:08:50.527Z,7.60
2018-10-01T19:11:19.682Z,7.33
2018-10-01T19:13:48.878Z,7.60
2018-10-01T19:16:18.134Z,6.40
2018-10-01T19:18:48.091Z,6.00
2018-10-01T19:21:17.391Z,7.50
2018-10-01T19:23:46.378Z,6.90
2018-10-01T19:26:16.123Z,5.60
2018-10-01T19:28:45.442Z,9.47
2018-10-01T19:31:14.833Z,7.10
2018-10-01T19:33:44.865Z,8.87
2018-10-01T19:36:13.907Z,6.10
2018-10-01T19:38:42.904Z,8.10
2018-10-01T19:41:10.325Z,9.40
2018-10-01T19:43:37.310Z,7.50
2018-10-01T19:46:04.325Z,10.07
2018-10-01T19:48:31.405Z,4.97
2018-10-01T19:50:58.487Z,6.87
2018-10-01T19:53:25.432Z,5.37
2018-10-01T19:55:52.692Z,7.57
2018-10-01T19:58:19.680Z,6.77
2018-10-01T20:00:46.693Z,4.20
2018-10-01T20:03:14.059Z,5.87
2018-10-01T20:05:41.058Z,5.30
2018-10-01T20:08:07.986Z,9.77
2018-10-01T20:10:34.924Z,4.70
2018-10-01T20:13:01.993Z,5.50
2018-10-01T20:15:28.937Z,13.57
2018-10-01T20:17:55.950Z,8.80
2018-10-01T20:20:22.908Z,7.50
2018-10-01T20:22:49.857Z,6.87
2018-10-01T20:25:17.162Z,5.83
2018-10-01T20:27:44.176Z,5.17
2018-10-01T20:30:11.104Z,4.60
2018-10-01T20:32:38.162Z,4.63
2018-10-01T20:35:05.336Z,4.07
2018-10-01T20:37:32.153Z,3.73
2018-10-01T20:39:59.557Z,3.60
2018-10-01T20:42:26.528Z,3.47
2018-10-01T20:44:53.443Z,2.77
2018-10-01T20:47:20.737Z,4.00
2018-10-01T20:49:47.803Z,2.63
2018-10-01T20:52:14.740Z,3.03
2018-10-01T20:54:41.689Z,2.63
2018-10-01T20:57:08.620Z,2.70
2018-10-01T20:59:35.564Z,3.40
2018-10-01T21:02:02.512Z,4.10
2018-10-01T21:04:29.544Z,2.50
2018-10-01T21:06:56.566Z,2.83
2018-10-01T21:09:24.034Z,5.30
2018-10-01T21:11:51.089Z,4.03
2018-10-01T21:14:18.151Z,5.73
2018-10-01T21:16:45.371Z,6.93
2018-10-01T21:19:12.301Z,5.57
2018-10-01T21:21:39.288Z,3.70
2018-10-01T21:24:06.324Z,5.17
2018-10-01T21:26:33.236Z,4.70
2018-10-01T21:29:00.168Z,7.67
2018-10-01T21:31:27.112Z,7.73
2018-10-01T21:33:54.081Z,6.03
2018-10-01T21:36:20.979Z,4.70
2018-10-01T21:38:47.916Z,4.87
2018-10-01T21:41:14.924Z,3.63
2018-10-01T21:43:41.812Z,3.40
2018-10-01T21:46:09.223Z,5.50
2018-10-01T21:48:36.148Z,5.33
2018-10-01T21:51:03.168Z,6.50
2018-10-01T21:53:30.478Z,3.87
2018-10-01T21:55:57.417Z,4.10
2018-10-01T21:58:24.351Z,5.30
2018-10-01T22:00:57.345Z,5.17
2018-10-01T22:03:24.300Z,2.50
2018-10-01T22:05:51.220Z,5.33
2018-10-01T22:08:18.518Z,3.80
2018-10-01T22:10:45.476Z,4.10
2018-10-01T22:13:12.526Z,3.37
2018-10-01T22:15:44.968Z,3.27
2018-10-01T22:18:13.152Z,4.47
2018-10-01T22:20:40.209Z,2.77
2018-10-01T22:23:07.543Z,3.30
2018-10-01T22:25:34.510Z,2.93
2018-10-01T22:28:01.592Z,3.30
2018-10-01T22:30:28.632Z,2.50
2018-10-01T22:32:55.772Z,3.23
2018-10-01T22:35:22.736Z,2.50
2018-10-01T22:37:50.333Z,3.00
2018-10-01T22:40:17.485Z,2.93
2018-10-01T22:42:44.781Z,2.30
2018-10-01T22:45:11.989Z,2.20
2018-10-01T22:47:38.920Z,2.47
2018-10-01T22:50:06.006Z,2.27
2018-10-01T22:52:33.651Z,2.57
2018-10-01T22:55:00.751Z,2.33
2018-10-01T22:57:27.844Z,2.67
2018-10-01T22:59:55.338Z,2.37
2018-10-01T23:02:22.275Z,2.20
2018-10-01T23:04:49.280Z,3.30
2018-10-01T23:07:16.811Z,2.13
2018-10-01T23:09:44.119Z,2.33
2018-10-01T23:12:11.134Z,1.80
2018-10-01T23:14:38.546Z,2.13
2018-10-01T23:17:05.591Z,1.90
2018-10-01T23:19:32.751Z,2.20
2018-10-01T23:21:59.965Z,1.80
2018-10-01T23:24:27.037Z,2.07
2018-10-01T23:26:54.124Z,3.13
2018-10-01T23:29:21.511Z,2.90
2018-10-01T23:31:48.532Z,3.10
2018-10-01T23:34:15.558Z,2.33
2018-10-01T23:36:42.811Z,2.60
2018-10-01T23:39:09.871Z,2.80
2018-10-01T23:41:37.070Z,3.57
2018-10-01T23:44:04.134Z,2.00
2018-10-01T23:46:31.168Z,1.90
2018-10-01T23:48:58.183Z,2.20
2018-10-01T23:51:25.595Z,2.90
2018-10-01T23:53:53.731Z,2.50
2018-10-01T23:56:20.755Z,2.20
2018-10-01T23:58:47.830Z,2.73
